sensor_id;sensor_type;location;lat;lon;timestamp;temperature;humidity
55091;DHT22;40985;53.180;5.800;2023-08-07T00:00:27;14.50;99.90
55091;DHT22;40985;53.180;5.800;2023-08-07T00:02:53;14.40;99.90
55091;DHT22;40985;53.180;5.800;2023-08-07T00:05:19;14.50;99.90
55091;DHT22;40985;53.180;5.800;2023-08-07T00:07:44;14.50;99.90
55091;DHT22;40985;53.180;5.800;2023-08-07T00:10:10;14.50;99.90
55091;DHT22;40985;53.180;5.800;2023-08-07T00:12:36;14.40;99.90
55091;DHT22;40985;53.180;5.800;2023-08-07T00:15:02;14.50;99.90
55091;DHT22;40985;53.180;5.800;2023-08-07T00:17:28;14.50;99.90
55091;DHT22;40985;53.180;5.800;2023-08-07T00:19:54;14.40;99.90
55091;DHT22;40985;53.180;5.800;2023-08-07T00:22:20;14.40;99.90
55091;DHT22;40985;53.180;5.800;2023-08-07T00:24:46;14.30;99.90
55091;DHT22;40985;53.180;5.800;2023-08-07T00:27:11;14.30;99.90
55091;DHT22;40985;53.180;5.800;2023-08-07T00:29:38;14.20;99.90
55091;DHT22;40985;53.180;5.800;2023-08-07T00:32:04;14.20;99.90
55091;DHT22;40985;53.180;5.800;2023-08-07T00:34:30;14.10;99.90
55091;DHT22;40985;53.180;5.800;2023-08-07T00:36:56;14.20;99.90
55091;DHT22;40985;53.180;5.800;2023-08-07T00:39:22;14.10;99.90
55091;DHT22;40985;53.180;5.800;2023-08-07T00:41:48;14.10;99.90
55091;DHT22;40985;53.180;5.800;2023-08-07T00:44:13;14.10;99.90
55091;DHT22;40985;53.180;5.800;2023-08-07T00:46:39;14.10;99.90
55091;DHT22;40985;53.180;5.800;2023-08-07T00:49:07;14.00;99.90
55091;DHT22;40985;53.180;5.800;2023-08-07T00:51:34;14.00;99.90
55091;DHT22;40985;53.180;5.800;2023-08-07T00:54:02;14.10;99.90
55091;DHT22;40985;53.180;5.800;2023-08-07T00:56:29;14.00;99.90
55091;DHT22;40985;53.180;5.800;2023-08-07T00:58:55;14.10;99.90
55091;DHT22;40985;53.180;5.800;2023-08-07T01:01:21;14.00;99.90
55091;DHT22;40985;53.180;5.800;2023-08-07T01:03:47;14.10;99.90
55091;DHT22;40985;53.180;5.800;2023-08-07T01:06:12;14.10;99.90
55091;DHT22;40985;53.180;5.800;2023-08-07T01:08:38;14.00;99.90
55091;DHT22;40985;53.180;5.800;2023-08-07T01:14:19;14.10;99.90
55091;DHT22;40985;53.180;5.800;2023-08-07T01:16:56;14.10;99.90
55091;DHT22;40985;53.180;5.800;2023-08-07T01:19:25;14.20;99.90
55091;DHT22;40985;53.180;5.800;2023-08-07T01:22:10;14.20;99.90
55091;DHT22;40985;53.180;5.800;2023-08-07T01:24:37;14.20;99.90
55091;DHT22;40985;53.180;5.800;2023-08-07T01:33:21;14.20;99.90
55091;DHT22;40985;53.180;5.800;2023-08-07T01:35:53;14.20;99.90
55091;DHT22;40985;53.180;5.800;2023-08-07T01:38:22;14.20;99.90
55091;DHT22;40985;53.180;5.800;2023-08-07T01:40:50;14.10;99.90
55091;DHT22;40985;53.180;5.800;2023-08-07T01:43:17;14.10;99.90
55091;DHT22;40985;53.180;5.800;2023-08-07T01:45:44;14.10;99.90
55091;DHT22;40985;53.180;5.800;2023-08-07T01:48:10;14.00;99.90
55091;DHT22;40985;53.180;5.800;2023-08-07T01:50:38;14.00;99.90
55091;DHT22;40985;53.180;5.800;2023-08-07T01:53:03;14.00;99.90
55091;DHT22;40985;53.180;5.800;2023-08-07T01:55:29;13.90;99.90
55091;DHT22;40985;53.180;5.800;2023-08-07T01:57:55;13.90;99.90
55091;DHT22;40985;53.180;5.800;2023-08-07T02:00:21;13.90;99.90
55091;DHT22;40985;53.180;5.800;2023-08-07T02:02:47;13.90;99.90
55091;DHT22;40985;53.180;5.800;2023-08-07T02:05:13;13.90;99.90
55091;DHT22;40985;53.180;5.800;2023-08-07T02:07:39;13.80;99.90
55091;DHT22;40985;53.180;5.800;2023-08-07T02:10:05;13.80;99.90
55091;DHT22;40985;53.180;5.800;2023-08-07T02:12:31;13.80;99.90
55091;DHT22;40985;53.180;5.800;2023-08-07T02:15:00;13.80;99.90
55091;DHT22;40985;53.180;5.800;2023-08-07T02:17:30;13.80;99.90
55091;DHT22;40985;53.180;5.800;2023-08-07T02:19:56;13.90;99.90
55091;DHT22;40985;53.180;5.800;2023-08-07T02:22:22;14.00;99.90
55091;DHT22;40985;53.180;5.800;2023-08-07T02:24:48;14.00;99.90
55091;DHT22;40985;53.180;5.800;2023-08-07T02:27:13;14.00;99.90
55091;DHT22;40985;53.180;5.800;2023-08-07T02:29:39;14.00;99.90
55091;DHT22;40985;53.180;5.800;2023-08-07T02:32:05;14.00;99.90
55091;DHT22;40985;53.180;5.800;2023-08-07T02:34:31;14.00;99.90
55091;DHT22;40985;53.180;5.800;2023-08-07T02:36:57;13.90;99.90
55091;DHT22;40985;53.180;5.800;2023-08-07T02:39:22;13.90;99.90
55091;DHT22;40985;53.180;5.800;2023-08-07T02:41:48;14.00;99.90
55091;DHT22;40985;53.180;5.800;2023-08-07T02:44:14;14.00;99.90
55091;DHT22;40985;53.180;5.800;2023-08-07T02:46:40;14.00;99.90
55091;DHT22;40985;53.180;5.800;2023-08-07T02:49:05;14.10;99.90
55091;DHT22;40985;53.180;5.800;2023-08-07T02:51:32;14.10;99.90
55091;DHT22;40985;53.180;5.800;2023-08-07T02:53:57;14.00;99.90
55091;DHT22;40985;53.180;5.800;2023-08-07T02:56:23;14.00;99.90
55091;DHT22;40985;53.180;5.800;2023-08-07T02:58:49;13.90;99.90
55091;DHT22;40985;53.180;5.800;2023-08-07T03:01:14;14.00;99.90
55091;DHT22;40985;53.180;5.800;2023-08-07T03:03:40;14.10;99.90
55091;DHT22;40985;53.180;5.800;2023-08-07T03:06:06;14.10;99.90
55091;DHT22;40985;53.180;5.800;2023-08-07T03:08:32;13.80;99.90
55091;DHT22;40985;53.180;5.800;2023-08-07T03:10:58;13.90;99.90
55091;DHT22;40985;53.180;5.800;2023-08-07T03:13:24;13.90;99.90
55091;DHT22;40985;53.180;5.800;2023-08-07T03:15:59;13.60;99.90
55091;DHT22;40985;53.180;5.800;2023-08-07T03:18:25;13.60;99.90
55091;DHT22;40985;53.180;5.800;2023-08-07T03:20:50;13.70;99.90
55091;DHT22;40985;53.180;5.800;2023-08-07T03:23:16;13.60;99.90
55091;DHT22;40985;53.180;5.800;2023-08-07T03:25:41;13.60;99.90
55091;DHT22;40985;53.180;5.800;2023-08-07T03:28:07;13.70;99.90
55091;DHT22;40985;53.180;5.800;2023-08-07T03:30:33;13.60;99.90
55091;DHT22;40985;53.180;5.800;2023-08-07T03:32:58;13.60;99.90
55091;DHT22;40985;53.180;5.800;2023-08-07T03:35:24;13.80;99.90
55091;DHT22;40985;53.180;5.800;2023-08-07T03:37:50;13.70;99.90
55091;DHT22;40985;53.180;5.800;2023-08-07T03:40:15;13.80;99.90
55091;DHT22;40985;53.180;5.800;2023-08-07T03:42:41;13.90;99.90
55091;DHT22;40985;53.180;5.800;2023-08-07T03:45:07;13.60;99.90
55091;DHT22;40985;53.180;5.800;2023-08-07T03:47:33;13.80;99.90
55091;DHT22;40985;53.180;5.800;2023-08-07T03:49:58;13.50;99.90
55091;DHT22;40985;53.180;5.800;2023-08-07T03:52:24;13.60;99.90
55091;DHT22;40985;53.180;5.800;2023-08-07T03:54:50;13.80;99.90
55091;DHT22;40985;53.180;5.800;2023-08-07T03:57:15;13.70;99.90
55091;DHT22;40985;53.180;5.800;2023-08-07T03:59:41;13.60;99.90
55091;DHT22;40985;53.180;5.800;2023-08-07T04:02:06;13.40;99.90
55091;DHT22;40985;53.180;5.800;2023-08-07T04:04:32;13.20;99.90
55091;DHT22;40985;53.180;5.800;2023-08-07T04:06:58;13.30;99.90
55091;DHT22;40985;53.180;5.800;2023-08-07T04:09:23;13.50;99.90
55091;DHT22;40985;53.180;5.800;2023-08-07T04:11:49;13.70;99.90
55091;DHT22;40985;53.180;5.800;2023-08-07T04:14:15;13.30;99.90
55091;DHT22;40985;53.180;5.800;2023-08-07T04:16:40;13.30;99.90
55091;DHT22;40985;53.180;5.800;2023-08-07T04:19:06;13.70;99.90
55091;DHT22;40985;53.180;5.800;2023-08-07T04:21:35;13.50;99.90
55091;DHT22;40985;53.180;5.800;2023-08-07T04:24:01;13.50;99.90
55091;DHT22;40985;53.180;5.800;2023-08-07T04:26:27;13.10;99.90
55091;DHT22;40985;53.180;5.800;2023-08-07T04:28:52;13.50;99.90
55091;DHT22;40985;53.180;5.800;2023-08-07T04:31:18;13.60;99.90
55091;DHT22;40985;53.180;5.800;2023-08-07T04:33:44;13.60;99.90
55091;DHT22;40985;53.180;5.800;2023-08-07T04:36:10;13.60;99.90
55091;DHT22;40985;53.180;5.800;2023-08-07T04:38:35;13.20;99.90
55091;DHT22;40985;53.180;5.800;2023-08-07T04:41:01;13.50;99.90
55091;DHT22;40985;53.180;5.800;2023-08-07T04:43:28;13.20;99.90
55091;DHT22;40985;53.180;5.800;2023-08-07T04:45:54;13.50;99.90
55091;DHT22;40985;53.180;5.800;2023-08-07T04:48:20;13.10;99.90
55091;DHT22;40985;53.180;5.800;2023-08-07T04:50:46;13.40;99.90
55091;DHT22;40985;53.180;5.800;2023-08-07T04:53:12;13.20;99.90
55091;DHT22;40985;53.180;5.800;2023-08-07T04:55:38;13.30;99.90
55091;DHT22;40985;53.180;5.800;2023-08-07T04:58:04;13.40;99.90
55091;DHT22;40985;53.180;5.800;2023-08-07T05:00:29;13.50;99.90
55091;DHT22;40985;53.180;5.800;2023-08-07T05:02:55;13.30;99.90
55091;DHT22;40985;53.180;5.800;2023-08-07T05:05:21;13.40;99.90
55091;DHT22;40985;53.180;5.800;2023-08-07T05:07:47;13.60;99.90
55091;DHT22;40985;53.180;5.800;2023-08-07T05:10:13;13.50;99.90
55091;DHT22;40985;53.180;5.800;2023-08-07T05:12:39;13.50;99.90
55091;DHT22;40985;53.180;5.800;2023-08-07T05:15:05;13.40;99.90
55091;DHT22;40985;53.180;5.800;2023-08-07T05:17:31;13.60;99.90
55091;DHT22;40985;53.180;5.800;2023-08-07T05:19:57;13.60;99.90
55091;DHT22;40985;53.180;5.800;2023-08-07T05:22:23;13.60;99.90
55091;DHT22;40985;53.180;5.800;2023-08-07T05:24:48;13.60;99.90
55091;DHT22;40985;53.180;5.800;2023-08-07T05:27:14;13.60;99.90
55091;DHT22;40985;53.180;5.800;2023-08-07T05:29:40;13.60;99.90
55091;DHT22;40985;53.180;5.800;2023-08-07T05:32:13;13.70;99.90
55091;DHT22;40985;53.180;5.800;2023-08-07T05:34:39;13.60;99.90
55091;DHT22;40985;53.180;5.800;2023-08-07T05:37:05;13.70;99.90
55091;DHT22;40985;53.180;5.800;2023-08-07T05:39:31;13.80;99.90
55091;DHT22;40985;53.180;5.800;2023-08-07T05:41:57;13.80;99.90
55091;DHT22;40985;53.180;5.800;2023-08-07T05:44:24;13.80;99.90
55091;DHT22;40985;53.180;5.800;2023-08-07T05:46:50;13.80;99.90
55091;DHT22;40985;53.180;5.800;2023-08-07T05:49:16;13.70;99.90
55091;DHT22;40985;53.180;5.800;2023-08-07T05:51:41;13.70;99.90
55091;DHT22;40985;53.180;5.800;2023-08-07T05:54:07;13.80;99.90
55091;DHT22;40985;53.180;5.800;2023-08-07T05:56:33;13.70;99.90
55091;DHT22;40985;53.180;5.800;2023-08-07T05:58:59;13.70;99.90
55091;DHT22;40985;53.180;5.800;2023-08-07T06:01:24;13.70;99.90
55091;DHT22;40985;53.180;5.800;2023-08-07T06:03:58;13.70;99.90
55091;DHT22;40985;53.180;5.800;2023-08-07T06:06:25;13.80;99.90
55091;DHT22;40985;53.180;5.800;2023-08-07T06:08:51;13.80;99.90
55091;DHT22;40985;53.180;5.800;2023-08-07T06:11:17;13.80;99.90
55091;DHT22;40985;53.180;5.800;2023-08-07T06:13:43;13.80;99.90
55091;DHT22;40985;53.180;5.800;2023-08-07T06:16:09;13.90;99.90
55091;DHT22;40985;53.180;5.800;2023-08-07T06:18:34;13.90;99.90
55091;DHT22;40985;53.180;5.800;2023-08-07T06:21:01;14.00;99.90
55091;DHT22;40985;53.180;5.800;2023-08-07T06:23:26;14.00;99.90
55091;DHT22;40985;53.180;5.800;2023-08-07T06:25:52;14.10;99.90
55091;DHT22;40985;53.180;5.800;2023-08-07T06:28:17;14.10;99.90
55091;DHT22;40985;53.180;5.800;2023-08-07T06:30:43;14.20;99.90
55091;DHT22;40985;53.180;5.800;2023-08-07T06:33:09;14.20;99.90
55091;DHT22;40985;53.180;5.800;2023-08-07T06:35:38;14.40;99.90
55091;DHT22;40985;53.180;5.800;2023-08-07T06:38:05;14.40;99.90
55091;DHT22;40985;53.180;5.800;2023-08-07T06:40:30;14.30;99.90
55091;DHT22;40985;53.180;5.800;2023-08-07T06:42:56;14.40;99.90
55091;DHT22;40985;53.180;5.800;2023-08-07T06:45:22;14.40;99.90
55091;DHT22;40985;53.180;5.800;2023-08-07T06:47:47;14.40;99.90
55091;DHT22;40985;53.180;5.800;2023-08-07T06:50:13;14.30;99.90
55091;DHT22;40985;53.180;5.800;2023-08-07T06:52:39;13.80;99.90
55091;DHT22;40985;53.180;5.800;2023-08-07T06:55:05;13.50;99.90
55091;DHT22;40985;53.180;5.800;2023-08-07T06:57:31;13.40;99.90
55091;DHT22;40985;53.180;5.800;2023-08-07T06:59:57;13.30;99.90
55091;DHT22;40985;53.180;5.800;2023-08-07T07:02:22;13.40;99.90
55091;DHT22;40985;53.180;5.800;2023-08-07T07:04:48;13.40;99.90
55091;DHT22;40985;53.180;5.800;2023-08-07T07:07:14;13.30;99.90
55091;DHT22;40985;53.180;5.800;2023-08-07T07:09:39;13.40;99.90
55091;DHT22;40985;53.180;5.800;2023-08-07T07:12:05;13.30;99.90
55091;DHT22;40985;53.180;5.800;2023-08-07T07:14:32;13.50;99.90
55091;DHT22;40985;53.180;5.800;2023-08-07T07:16:59;13.70;99.90
55091;DHT22;40985;53.180;5.800;2023-08-07T07:19:25;13.90;99.90
55091;DHT22;40985;53.180;5.800;2023-08-07T07:21:50;14.20;99.90
55091;DHT22;40985;53.180;5.800;2023-08-07T07:24:17;14.30;99.90
55091;DHT22;40985;53.180;5.800;2023-08-07T07:26:43;14.30;99.90
55091;DHT22;40985;53.180;5.800;2023-08-07T07:29:08;14.40;99.90
55091;DHT22;40985;53.180;5.800;2023-08-07T07:31:34;14.40;99.90
55091;DHT22;40985;53.180;5.800;2023-08-07T07:34:00;14.10;99.90
55091;DHT22;40985;53.180;5.800;2023-08-07T07:36:26;13.70;99.90
55091;DHT22;40985;53.180;5.800;2023-08-07T07:38:51;13.70;99.90
55091;DHT22;40985;53.180;5.800;2023-08-07T07:41:17;13.60;99.90
55091;DHT22;40985;53.180;5.800;2023-08-07T07:43:44;13.60;99.90
55091;DHT22;40985;53.180;5.800;2023-08-07T07:46:10;13.70;99.90
55091;DHT22;40985;53.180;5.800;2023-08-07T07:48:35;13.80;99.90
55091;DHT22;40985;53.180;5.800;2023-08-07T07:51:04;13.80;99.90
55091;DHT22;40985;53.180;5.800;2023-08-07T07:53:30;13.80;99.90
55091;DHT22;40985;53.180;5.800;2023-08-07T07:55:56;13.90;99.90
55091;DHT22;40985;53.180;5.800;2023-08-07T07:58:22;13.90;99.90
55091;DHT22;40985;53.180;5.800;2023-08-07T08:00:48;14.00;99.90
55091;DHT22;40985;53.180;5.800;2023-08-07T08:03:14;14.00;99.90
55091;DHT22;40985;53.180;5.800;2023-08-07T08:05:40;14.10;99.90
55091;DHT22;40985;53.180;5.800;2023-08-07T08:08:06;14.20;99.90
55091;DHT22;40985;53.180;5.800;2023-08-07T08:10:35;14.20;99.90
55091;DHT22;40985;53.180;5.800;2023-08-07T08:13:01;14.20;99.90
55091;DHT22;40985;53.180;5.800;2023-08-07T08:15:29;14.20;99.90
55091;DHT22;40985;53.180;5.800;2023-08-07T08:17:55;14.30;99.90
55091;DHT22;40985;53.180;5.800;2023-08-07T08:20:21;14.40;99.90
55091;DHT22;40985;53.180;5.800;2023-08-07T08:22:47;14.40;99.90
55091;DHT22;40985;53.180;5.800;2023-08-07T08:25:12;14.50;99.90
55091;DHT22;40985;53.180;5.800;2023-08-07T08:27:39;14.60;99.90
55091;DHT22;40985;53.180;5.800;2023-08-07T08:30:05;14.60;99.90
55091;DHT22;40985;53.180;5.800;2023-08-07T08:32:31;14.90;99.90
55091;DHT22;40985;53.180;5.800;2023-08-07T08:34:57;14.90;99.90
55091;DHT22;40985;53.180;5.800;2023-08-07T08:37:23;14.90;99.90
55091;DHT22;40985;53.180;5.800;2023-08-07T08:39:49;14.90;99.90
55091;DHT22;40985;53.180;5.800;2023-08-07T08:42:15;15.00;99.90
55091;DHT22;40985;53.180;5.800;2023-08-07T08:44:54;15.00;99.90
55091;DHT22;40985;53.180;5.800;2023-08-07T08:47:21;15.10;99.90
55091;DHT22;40985;53.180;5.800;2023-08-07T08:49:50;15.10;99.90
55091;DHT22;40985;53.180;5.800;2023-08-07T08:52:16;15.10;99.90
55091;DHT22;40985;53.180;5.800;2023-08-07T08:54:43;15.20;99.90
55091;DHT22;40985;53.180;5.800;2023-08-07T08:57:09;15.10;99.90
55091;DHT22;40985;53.180;5.800;2023-08-07T08:59:36;15.20;99.90
55091;DHT22;40985;53.180;5.800;2023-08-07T09:02:02;15.30;99.90
55091;DHT22;40985;53.180;5.800;2023-08-07T09:04:29;15.30;99.90
55091;DHT22;40985;53.180;5.800;2023-08-07T09:06:54;15.20;99.90
55091;DHT22;40985;53.180;5.800;2023-08-07T09:09:21;15.20;99.90
55091;DHT22;40985;53.180;5.800;2023-08-07T09:11:48;15.10;99.90
55091;DHT22;40985;53.180;5.800;2023-08-07T09:14:17;15.10;99.90
55091;DHT22;40985;53.180;5.800;2023-08-07T09:16:48;15.10;99.90
55091;DHT22;40985;53.180;5.800;2023-08-07T09:19:14;15.00;99.90
55091;DHT22;40985;53.180;5.800;2023-08-07T09:21:40;15.00;99.90
55091;DHT22;40985;53.180;5.800;2023-08-07T09:24:05;15.20;99.90
55091;DHT22;40985;53.180;5.800;2023-08-07T09:26:32;15.40;99.90
55091;DHT22;40985;53.180;5.800;2023-08-07T09:28:59;15.60;99.90
55091;DHT22;40985;53.180;5.800;2023-08-07T09:31:26;15.50;99.90
55091;DHT22;40985;53.180;5.800;2023-08-07T09:33:51;15.60;99.90
55091;DHT22;40985;53.180;5.800;2023-08-07T09:36:17;15.40;99.90
55091;DHT22;40985;53.180;5.800;2023-08-07T09:38:44;15.40;99.90
55091;DHT22;40985;53.180;5.800;2023-08-07T09:41:10;15.30;99.90
55091;DHT22;40985;53.180;5.800;2023-08-07T09:43:36;15.20;99.90
55091;DHT22;40985;53.180;5.800;2023-08-07T09:46:06;15.10;99.90
55091;DHT22;40985;53.180;5.800;2023-08-07T09:48:42;15.10;99.90
55091;DHT22;40985;53.180;5.800;2023-08-07T09:51:08;15.20;99.90
55091;DHT22;40985;53.180;5.800;2023-08-07T09:53:33;15.50;99.90
55091;DHT22;40985;53.180;5.800;2023-08-07T09:56:00;15.80;99.90
55091;DHT22;40985;53.180;5.800;2023-08-07T09:58:25;15.90;99.90
55091;DHT22;40985;53.180;5.800;2023-08-07T10:00:52;16.00;99.90
55091;DHT22;40985;53.180;5.800;2023-08-07T10:03:25;16.00;99.90
55091;DHT22;40985;53.180;5.800;2023-08-07T10:05:51;16.10;99.90
55091;DHT22;40985;53.180;5.800;2023-08-07T10:08:17;16.20;99.90
55091;DHT22;40985;53.180;5.800;2023-08-07T10:10:43;16.10;99.90
55091;DHT22;40985;53.180;5.800;2023-08-07T10:13:12;16.00;99.90
55091;DHT22;40985;53.180;5.800;2023-08-07T10:15:39;16.10;99.90
55091;DHT22;40985;53.180;5.800;2023-08-07T10:18:07;16.20;99.90
55091;DHT22;40985;53.180;5.800;2023-08-07T10:20:33;16.10;99.90
55091;DHT22;40985;53.180;5.800;2023-08-07T10:23:04;16.10;99.90
55091;DHT22;40985;53.180;5.800;2023-08-07T10:25:32;16.10;99.90
55091;DHT22;40985;53.180;5.800;2023-08-07T10:28:00;16.10;99.90
55091;DHT22;40985;53.180;5.800;2023-08-07T10:30:27;16.40;99.90
55091;DHT22;40985;53.180;5.800;2023-08-07T10:32:54;16.40;99.90
55091;DHT22;40985;53.180;5.800;2023-08-07T10:35:24;16.40;99.90
55091;DHT22;40985;53.180;5.800;2023-08-07T10:37:51;16.60;99.90
55091;DHT22;40985;53.180;5.800;2023-08-07T10:40:17;16.50;99.90
55091;DHT22;40985;53.180;5.800;2023-08-07T10:45:20;16.60;99.90
55091;DHT22;40985;53.180;5.800;2023-08-07T10:47:57;16.60;99.90
55091;DHT22;40985;53.180;5.800;2023-08-07T10:50:31;16.60;99.90
55091;DHT22;40985;53.180;5.800;2023-08-07T10:53:00;16.80;99.90
55091;DHT22;40985;53.180;5.800;2023-08-07T10:55:26;17.10;99.90
55091;DHT22;40985;53.180;5.800;2023-08-07T10:57:53;17.10;99.90
55091;DHT22;40985;53.180;5.800;2023-08-07T11:00:26;17.00;99.90
55091;DHT22;40985;53.180;5.800;2023-08-07T11:02:52;16.60;99.90
55091;DHT22;40985;53.180;5.800;2023-08-07T11:05:18;16.50;99.90
55091;DHT22;40985;53.180;5.800;2023-08-07T11:07:45;16.50;99.90
55091;DHT22;40985;53.180;5.800;2023-08-07T11:10:13;16.60;99.90
55091;DHT22;40985;53.180;5.800;2023-08-07T11:12:40;16.80;99.90
55091;DHT22;40985;53.180;5.800;2023-08-07T11:15:06;16.70;99.90
55091;DHT22;40985;53.180;5.800;2023-08-07T11:17:32;16.80;99.90
55091;DHT22;40985;53.180;5.800;2023-08-07T11:19:58;16.90;99.90
55091;DHT22;40985;53.180;5.800;2023-08-07T11:22:24;16.80;99.90
55091;DHT22;40985;53.180;5.800;2023-08-07T11:24:51;16.50;99.90
55091;DHT22;40985;53.180;5.800;2023-08-07T11:27:17;16.30;99.90
55091;DHT22;40985;53.180;5.800;2023-08-07T11:29:47;16.20;99.90
55091;DHT22;40985;53.180;5.800;2023-08-07T11:32:14;15.90;99.90
55091;DHT22;40985;53.180;5.800;2023-08-07T11:34:39;15.60;99.90
55091;DHT22;40985;53.180;5.800;2023-08-07T11:37:05;15.30;99.90
55091;DHT22;40985;53.180;5.800;2023-08-07T11:39:31;15.20;99.90
55091;DHT22;40985;53.180;5.800;2023-08-07T11:41:56;15.10;99.90
55091;DHT22;40985;53.180;5.800;2023-08-07T11:44:22;15.20;99.90
55091;DHT22;40985;53.180;5.800;2023-08-07T11:46:50;15.10;99.90
55091;DHT22;40985;53.180;5.800;2023-08-07T11:49:16;15.10;99.90
55091;DHT22;40985;53.180;5.800;2023-08-07T11:51:43;15.30;99.90
55091;DHT22;40985;53.180;5.800;2023-08-07T11:54:15;15.60;99.90
55091;DHT22;40985;53.180;5.800;2023-08-07T11:56:41;15.50;99.90
55091;DHT22;40985;53.180;5.800;2023-08-07T11:59:08;15.50;99.90
55091;DHT22;40985;53.180;5.800;2023-08-07T12:01:38;15.40;99.90
55091;DHT22;40985;53.180;5.800;2023-08-07T12:04:08;15.20;99.90
55091;DHT22;40985;53.180;5.800;2023-08-07T12:06:34;15.30;99.90
55091;DHT22;40985;53.180;5.800;2023-08-07T12:09:07;15.50;99.90
55091;DHT22;40985;53.180;5.800;2023-08-07T12:11:38;15.90;99.90
55091;DHT22;40985;53.180;5.800;2023-08-07T12:14:04;15.90;99.90
55091;DHT22;40985;53.180;5.800;2023-08-07T12:16:33;16.10;99.90
55091;DHT22;40985;53.180;5.800;2023-08-07T12:18:59;16.20;99.90
55091;DHT22;40985;53.180;5.800;2023-08-07T12:21:26;16.50;99.90
55091;DHT22;40985;53.180;5.800;2023-08-07T12:23:55;16.90;99.90
55091;DHT22;40985;53.180;5.800;2023-08-07T12:26:21;16.70;99.90
55091;DHT22;40985;53.180;5.800;2023-08-07T12:28:47;16.70;99.90
55091;DHT22;40985;53.180;5.800;2023-08-07T12:31:13;16.90;99.90
55091;DHT22;40985;53.180;5.800;2023-08-07T12:33:39;16.80;99.90
55091;DHT22;40985;53.180;5.800;2023-08-07T12:36:04;16.90;99.90
55091;DHT22;40985;53.180;5.800;2023-08-07T12:38:31;16.70;99.90
55091;DHT22;40985;53.180;5.800;2023-08-07T12:40:57;16.70;99.90
55091;DHT22;40985;53.180;5.800;2023-08-07T12:43:23;16.40;99.90
55091;DHT22;40985;53.180;5.800;2023-08-07T12:45:48;16.30;99.90
55091;DHT22;40985;53.180;5.800;2023-08-07T12:48:14;16.30;99.90
55091;DHT22;40985;53.180;5.800;2023-08-07T12:50:40;16.20;99.90
55091;DHT22;40985;53.180;5.800;2023-08-07T12:53:06;16.30;99.90
55091;DHT22;40985;53.180;5.800;2023-08-07T12:55:32;16.40;99.90
55091;DHT22;40985;53.180;5.800;2023-08-07T12:57:58;16.50;99.90
55091;DHT22;40985;53.180;5.800;2023-08-07T13:00:24;16.60;99.90
55091;DHT22;40985;53.180;5.800;2023-08-07T13:02:51;16.40;99.90
55091;DHT22;40985;53.180;5.800;2023-08-07T13:05:18;16.60;99.90
55091;DHT22;40985;53.180;5.800;2023-08-07T13:07:45;16.80;99.90
55091;DHT22;40985;53.180;5.800;2023-08-07T13:10:12;16.90;99.90
55091;DHT22;40985;53.180;5.800;2023-08-07T13:12:40;17.30;99.90
55091;DHT22;40985;53.180;5.800;2023-08-07T13:15:08;17.00;99.90
55091;DHT22;40985;53.180;5.800;2023-08-07T13:17:35;16.80;99.90
55091;DHT22;40985;53.180;5.800;2023-08-07T13:20:02;16.70;99.90
55091;DHT22;40985;53.180;5.800;2023-08-07T13:22:36;16.90;99.90
55091;DHT22;40985;53.180;5.800;2023-08-07T13:25:03;16.80;99.90
55091;DHT22;40985;53.180;5.800;2023-08-07T13:27:29;17.10;99.90
55091;DHT22;40985;53.180;5.800;2023-08-07T13:29:55;17.30;99.90
55091;DHT22;40985;53.180;5.800;2023-08-07T13:32:21;17.40;99.90
55091;DHT22;40985;53.180;5.800;2023-08-07T13:34:47;16.90;99.90
55091;DHT22;40985;53.180;5.800;2023-08-07T13:37:13;17.00;99.90
55091;DHT22;40985;53.180;5.800;2023-08-07T13:39:40;17.20;99.90
55091;DHT22;40985;53.180;5.800;2023-08-07T13:42:06;17.20;99.90
55091;DHT22;40985;53.180;5.800;2023-08-07T13:44:32;17.30;99.90
55091;DHT22;40985;53.180;5.800;2023-08-07T13:46:57;17.60;99.90
55091;DHT22;40985;53.180;5.800;2023-08-07T13:49:23;17.60;99.90
55091;DHT22;40985;53.180;5.800;2023-08-07T13:51:49;17.60;99.90
55091;DHT22;40985;53.180;5.800;2023-08-07T13:54:15;17.60;99.90
55091;DHT22;40985;53.180;5.800;2023-08-07T13:56:41;17.40;99.90
55091;DHT22;40985;53.180;5.800;2023-08-07T13:59:07;17.30;99.90
55091;DHT22;40985;53.180;5.800;2023-08-07T14:01:33;17.00;99.90
55091;DHT22;40985;53.180;5.800;2023-08-07T14:04:01;16.90;99.90
55091;DHT22;40985;53.180;5.800;2023-08-07T14:06:27;17.00;99.90
55091;DHT22;40985;53.180;5.800;2023-08-07T14:08:52;17.40;99.90
55091;DHT22;40985;53.180;5.800;2023-08-07T14:11:18;17.70;99.90
55091;DHT22;40985;53.180;5.800;2023-08-07T14:13:44;17.80;99.90
55091;DHT22;40985;53.180;5.800;2023-08-07T14:16:11;17.60;99.90
55091;DHT22;40985;53.180;5.800;2023-08-07T14:18:37;17.80;99.90
55091;DHT22;40985;53.180;5.800;2023-08-07T14:21:03;18.00;99.90
55091;DHT22;40985;53.180;5.800;2023-08-07T14:23:29;18.00;99.90
55091;DHT22;40985;53.180;5.800;2023-08-07T14:25:55;18.00;99.90
55091;DHT22;40985;53.180;5.800;2023-08-07T14:28:21;17.80;99.90
55091;DHT22;40985;53.180;5.800;2023-08-07T14:30:47;17.80;99.90
55091;DHT22;40985;53.180;5.800;2023-08-07T14:33:13;17.70;99.90
55091;DHT22;40985;53.180;5.800;2023-08-07T14:35:39;17.90;99.90
55091;DHT22;40985;53.180;5.800;2023-08-07T14:38:04;17.40;99.90
55091;DHT22;40985;53.180;5.800;2023-08-07T14:40:30;17.60;99.90
55091;DHT22;40985;53.180;5.800;2023-08-07T14:42:56;17.30;99.90
55091;DHT22;40985;53.180;5.800;2023-08-07T14:45:21;17.10;99.90
55091;DHT22;40985;53.180;5.800;2023-08-07T14:47:49;16.90;99.90
55091;DHT22;40985;53.180;5.800;2023-08-07T14:50:15;17.10;99.90
55091;DHT22;40985;53.180;5.800;2023-08-07T14:52:44;17.30;99.90
55091;DHT22;40985;53.180;5.800;2023-08-07T14:55:10;17.10;99.90
55091;DHT22;40985;53.180;5.800;2023-08-07T14:57:36;17.20;99.90
55091;DHT22;40985;53.180;5.800;2023-08-07T15:00:01;17.10;99.90
55091;DHT22;40985;53.180;5.800;2023-08-07T15:02:28;16.90;99.90
55091;DHT22;40985;53.180;5.800;2023-08-07T15:04:53;16.90;99.90
55091;DHT22;40985;53.180;5.800;2023-08-07T15:07:19;17.10;99.90
55091;DHT22;40985;53.180;5.800;2023-08-07T15:09:45;17.00;99.90
55091;DHT22;40985;53.180;5.800;2023-08-07T15:12:11;17.10;99.90
55091;DHT22;40985;53.180;5.800;2023-08-07T15:14:36;17.10;99.90
55091;DHT22;40985;53.180;5.800;2023-08-07T15:17:03;17.20;99.90
55091;DHT22;40985;53.180;5.800;2023-08-07T15:19:29;17.20;99.90
55091;DHT22;40985;53.180;5.800;2023-08-07T15:21:55;17.30;99.90
55091;DHT22;40985;53.180;5.800;2023-08-07T15:24:20;17.30;99.90
55091;DHT22;40985;53.180;5.800;2023-08-07T15:26:46;17.00;99.90
55091;DHT22;40985;53.180;5.800;2023-08-07T15:29:11;17.20;99.90
55091;DHT22;40985;53.180;5.800;2023-08-07T15:31:38;17.40;99.90
55091;DHT22;40985;53.180;5.800;2023-08-07T15:34:03;17.00;99.90
55091;DHT22;40985;53.180;5.800;2023-08-07T15:36:29;17.00;99.90